sensor_id;sensor_type;location;lat;lon;timestamp;pressure;altitude;pressure_sealevel;temperature;humidity
48800;BME280;34611;47.964;7.982;2023-04-28T00:00:10;96596.09;;;11.54;64.66
48800;BME280;34611;47.964;7.982;2023-04-28T00:07:10;96593.50;;;11.54;64.73
48800;BME280;34611;47.964;7.982;2023-04-28T00:14:11;96588.28;;;11.54;64.69
48800;BME280;34611;47.964;7.982;2023-04-28T00:21:12;96570.06;;;11.54;64.64
48800;BME280;34611;47.964;7.982;2023-04-28T00:28:12;96562.25;;;11.54;64.64
48800;BME280;34611;47.964;7.982;2023-04-28T00:35:12;96557.06;;;11.54;64.68
48800;BME280;34611;47.964;7.982;2023-04-28T00:42:13;96550.91;;;11.55;64.64
48800;BME280;34611;47.964;7.982;2023-04-28T00:49:14;96538.81;;;11.54;64.59
48800;BME280;34611;47.964;7.982;2023-04-28T00:56:15;96534.47;;;11.54;64.58
48800;BME280;34611;47.964;7.982;2023-04-28T01:03:15;96527.47;;;11.55;64.71
48800;BME280;34611;47.964;7.982;2023-04-28T01:10:16;96535.28;;;11.55;64.63
48800;BME280;34611;47.964;7.982;2023-04-28T01:17:16;96539.66;;;11.54;64.55
48800;BME280;34611;47.964;7.982;2023-04-28T01:24:17;96561.31;;;11.55;64.78
48800;BME280;34611;47.964;7.982;2023-04-28T01:31:17;96576.94;;;11.55;64.78
48800;BME280;34611;47.964;7.982;2023-04-28T01:38:17;96587.34;;;11.55;64.55
48800;BME280;34611;47.964;7.982;2023-04-28T01:45:18;96592.56;;;11.55;64.70
48800;BME280;34611;47.964;7.982;2023-04-28T01:52:18;96611.59;;;11.55;64.79
48800;BME280;34611;47.964;7.982;2023-04-28T01:59:21;96618.59;;;11.55;64.64
48800;BME280;34611;47.964;7.982;2023-04-28T02:06:22;96617.75;;;11.54;64.74
48800;BME280;34611;47.964;7.982;2023-04-28T02:13:22;96630.63;;;11.56;64.63
48800;BME280;34611;47.964;7.982;2023-04-28T02:20:22;96625.56;;;11.54;64.65
48800;BME280;34611;47.964;7.982;2023-04-28T02:27:23;96615.00;;;11.56;64.60
48800;BME280;34611;47.964;7.982;2023-04-28T02:34:23;96602.97;;;11.55;64.55
48800;BME280;34611;47.964;7.982;2023-04-28T02:41:23;96595.97;;;11.55;64.61
48800;BME280;34611;47.964;7.982;2023-04-28T02:48:24;96603.78;;;11.55;64.70
48800;BME280;34611;47.964;7.982;2023-04-28T02:55:24;96587.34;;;11.55;64.69
48800;BME280;34611;47.964;7.982;2023-04-28T03:02:26;96581.16;;;11.56;64.61
48800;BME280;34611;47.964;7.982;2023-04-28T03:09:26;96576.13;;;11.54;64.59
48800;BME280;34611;47.964;7.982;2023-04-28T03:16:26;96582.13;;;11.55;64.61
48800;BME280;34611;47.964;7.982;2023-04-28T03:23:27;96566.50;;;11.55;64.65
48800;BME280;34611;47.964;7.982;2023-04-28T03:30:27;96579.53;;;11.55;64.53
48800;BME280;34611;47.964;7.982;2023-04-28T03:37:27;96561.31;;;11.55;64.75
48800;BME280;34611;47.964;7.982;2023-04-28T03:44:28;96562.13;;;11.55;64.74
48800;BME280;34611;47.964;7.982;2023-04-28T03:51:28;96556.09;;;11.55;64.53
48800;BME280;34611;47.964;7.982;2023-04-28T03:58:29;96550.91;;;11.55;64.55
48800;BME280;34611;47.964;7.982;2023-04-28T04:05:29;96535.28;;;11.55;64.46
48800;BME280;34611;47.964;7.982;2023-04-28T04:12:30;96537.88;;;11.55;64.55
48800;BME280;34611;47.964;7.982;2023-04-28T04:19:31;96530.06;;;11.55;64.77
48800;BME280;34611;47.964;7.982;2023-04-28T04:26:31;96543.09;;;11.55;64.75
48800;BME280;34611;47.964;7.982;2023-04-28T04:33:32;96534.47;;;11.54;64.57
48800;BME280;34611;47.964;7.982;2023-04-28T04:40:33;96544.72;;;11.56;64.90
48800;BME280;34611;47.964;7.982;2023-04-28T04:47:34;96539.78;;;11.63;64.97
48800;BME280;34611;47.964;7.982;2023-04-28T04:54:34;96537.59;;;11.58;64.96
48800;BME280;34611;47.964;7.982;2023-04-28T05:01:35;96539.38;;;11.58;64.88
48800;BME280;34611;47.964;7.982;2023-04-28T05:08:35;96536.09;;;11.55;64.68
48800;BME280;34611;47.964;7.982;2023-04-28T05:15:36;96530.75;;;11.57;64.68
48800;BME280;34611;47.964;7.982;2023-04-28T05:22:59;96535.81;;;11.59;64.82
48800;BME280;34611;47.964;7.982;2023-04-28T05:30:00;96524.72;;;11.57;64.80
48800;BME280;34611;47.964;7.982;2023-04-28T05:37:01;96523.75;;;11.58;64.96
48800;BME280;34611;47.964;7.982;2023-04-28T05:44:08;96528.81;;;11.59;64.98
48800;BME280;34611;47.964;7.982;2023-04-28T05:51:08;96531.56;;;11.58;64.85
48800;BME280;34611;47.964;7.982;2023-04-28T05:58:08;96523.75;;;11.58;64.92
48800;BME280;34611;47.964;7.982;2023-04-28T06:05:09;96540.19;;;11.58;64.97
48800;BME280;34611;47.964;7.982;2023-04-28T06:12:10;96529.78;;;11.58;65.00
48800;BME280;34611;47.964;7.982;2023-04-28T06:19:10;96540.19;;;11.58;65.01
48800;BME280;34611;47.964;7.982;2023-04-28T06:26:10;96555.81;;;11.58;65.00
48800;BME280;34611;47.964;7.982;2023-04-28T06:33:12;96528.81;;;11.59;64.92
48800;BME280;34611;47.964;7.982;2023-04-28T06:40:13;96541.03;;;11.59;65.02
48800;BME280;34611;47.964;7.982;2023-04-28T06:47:17;96535.34;;;11.73;64.59
48800;BME280;34611;47.964;7.982;2023-04-28T06:54:17;96551.16;;;11.62;65.25
48800;BME280;34611;47.964;7.982;2023-04-28T07:01:17;96560.75;;;11.61;65.20
48800;BME280;34611;47.964;7.982;2023-04-28T07:08:17;96575.56;;;11.61;65.39
48800;BME280;34611;47.964;7.982;2023-04-28T07:15:18;96565.13;;;11.61;65.30
48800;BME280;34611;47.964;7.982;2023-04-28T07:22:18;96553.88;;;11.60;65.10
48800;BME280;34611;47.964;7.982;2023-04-28T07:29:18;96564.16;;;11.62;65.28
48800;BME280;34611;47.964;7.982;2023-04-28T07:36:19;96573.75;;;11.61;65.21
48800;BME280;34611;47.964;7.982;2023-04-28T07:43:19;96574.72;;;11.60;65.39
48800;BME280;34611;47.964;7.982;2023-04-28T07:50:20;96571.03;;;11.63;65.24
48800;BME280;34611;47.964;7.982;2023-04-28T07:57:20;96566.91;;;11.60;65.48
48800;BME280;34611;47.964;7.982;2023-04-28T08:04:20;96578.97;;;11.61;65.18
48800;BME280;34611;47.964;7.982;2023-04-28T08:11:21;96572.78;;;11.62;65.34
48800;BME280;34611;47.964;7.982;2023-04-28T08:18:22;96578.00;;;11.62;65.34
48800;BME280;34611;47.964;7.982;2023-04-28T08:25:22;96576.38;;;11.61;65.30
48800;BME280;34611;47.964;7.982;2023-04-28T08:32:22;96580.59;;;11.62;65.20
48800;BME280;34611;47.964;7.982;2023-04-28T08:39:24;96592.66;;;11.63;65.27
48800;BME280;34611;47.964;7.982;2023-04-28T08:46:26;96617.03;;;11.62;65.27
48800;BME280;34611;47.964;7.982;2023-04-28T08:53:26;96643.06;;;11.62;65.53
48800;BME280;34611;47.964;7.982;2023-04-28T09:00:27;96641.31;;;11.63;65.20
48800;BME280;34611;47.964;7.982;2023-04-28T09:07:27;96624.84;;;11.62;65.39
48800;BME280;34611;47.964;7.982;2023-04-28T09:14:28;96630.75;;;11.64;65.44
48800;BME280;34611;47.964;7.982;2023-04-28T09:21:28;96641.31;;;11.63;65.51
48800;BME280;34611;47.964;7.982;2023-04-28T09:28:32;96629.25;;;11.62;65.39
48800;BME280;34611;47.964;7.982;2023-04-28T09:35:39;96642.25;;;11.62;65.45
48800;BME280;34611;47.964;7.982;2023-04-28T09:42:40;96653.50;;;11.62;65.60
48800;BME280;34611;47.964;7.982;2023-04-28T09:50:00;96642.13;;;11.63;65.26
48800;BME280;34611;47.964;7.982;2023-04-28T09:57:01;96649.94;;;11.63;65.45
48800;BME280;34611;47.964;7.982;2023-04-28T10:04:01;96636.94;;;11.63;65.54
48800;BME280;34611;47.964;7.982;2023-04-28T10:11:03;96635.28;;;11.62;65.37
48800;BME280;34611;47.964;7.982;2023-04-28T10:18:03;96636.94;;;11.63;65.51
48800;BME280;34611;47.964;7.982;2023-04-28T10:25:11;96654.16;;;11.64;65.49
48800;BME280;34611;47.964;7.982;2023-04-28T10:32:18;96642.94;;;11.64;65.56
48800;BME280;34611;47.964;7.982;2023-04-28T10:39:18;96635.94;;;11.64;65.54
48800;BME280;34611;47.964;7.982;2023-04-28T10:46:19;96648.97;;;11.64;65.65
48800;BME280;34611;47.964;7.982;2023-04-28T10:53:19;96641.16;;;11.64;65.75
48800;BME280;34611;47.964;7.982;2023-04-28T11:00:28;96626.50;;;11.63;65.70
48800;BME280;34611;47.964;7.982;2023-04-28T11:07:29;96628.13;;;11.64;65.41
48800;BME280;34611;47.964;7.982;2023-04-28T11:14:33;96632.41;;;11.65;65.66
48800;BME280;34611;47.964;7.982;2023-04-28T11:21:34;96629.78;;;11.65;65.70
48800;BME280;34611;47.964;7.982;2023-04-28T11:28:34;96616.09;;;11.63;65.51
48800;BME280;34611;47.964;7.982;2023-04-28T11:35:41;96615.13;;;11.64;65.59
48800;BME280;34611;47.964;7.982;2023-04-28T11:42:47;96607.31;;;11.64;65.61
48800;BME280;34611;47.964;7.982;2023-04-28T11:49:47;96599.50;;;11.64;65.57
48800;BME280;34611;47.964;7.982;2023-04-28T11:56:49;96593.34;;;11.65;65.47
48800;BME280;34611;47.964;7.982;2023-04-28T12:03:49;96589.94;;;11.65;65.68
48800;BME280;34611;47.964;7.982;2023-04-28T12:11:08;96585.41;;;11.67;65.75
48800;BME280;34611;47.964;7.982;2023-04-28T12:18:10;96574.31;;;11.65;65.62
48800;BME280;34611;47.964;7.982;2023-04-28T12:25:11;96575.13;;;11.65;65.63
48800;BME280;34611;47.964;7.982;2023-04-28T12:32:12;96569.91;;;11.65;65.78
48800;BME280;34611;47.964;7.982;2023-04-28T12:39:13;96571.69;;;11.65;65.74
48800;BME280;34611;47.964;7.982;2023-04-28T12:46:15;96581.94;;;11.66;65.73
48800;BME280;34611;47.964;7.982;2023-04-28T12:53:15;96566.50;;;11.65;65.83
48800;BME280;34611;47.964;7.982;2023-04-28T13:00:15;96566.34;;;11.66;65.89
48800;BME280;34611;47.964;7.982;2023-04-28T13:07:17;96552.50;;;11.66;65.63
48800;BME280;34611;47.964;7.982;2023-04-28T13:14:17;96561.13;;;11.66;65.85
48800;BME280;34611;47.964;7.982;2023-04-28T13:21:17;96546.47;;;11.65;65.96
48800;BME280;34611;47.964;7.982;2023-04-28T13:28:18;96548.09;;;11.66;65.94
48800;BME280;34611;47.964;7.982;2023-04-28T13:35:18;96544.69;;;11.66;65.73
48800;BME280;34611;47.964;7.982;2023-04-28T13:42:19;96532.34;;;11.68;65.93
48800;BME280;34611;47.964;7.982;2023-04-28T13:49:19;96526.31;;;11.67;65.74
48800;BME280;34611;47.964;7.982;2023-04-28T13:56:21;96513.44;;;11.66;65.70
48800;BME280;34611;47.964;7.982;2023-04-28T14:03:21;96517.72;;;11.67;66.08
48800;BME280;34611;47.964;7.982;2023-04-28T14:10:22;96523.72;;;11.67;65.74
48800;BME280;34611;47.964;7.982;2023-04-28T14:17:22;96508.91;;;11.68;65.89
48800;BME280;34611;47.964;7.982;2023-04-28T14:24:23;96509.88;;;11.67;66.05
48800;BME280;34611;47.964;7.982;2023-04-28T14:31:23;96496.03;;;11.66;66.02
48800;BME280;34611;47.964;7.982;2023-04-28T14:38:23;96501.91;;;11.68;65.78
48800;BME280;34611;47.964;7.982;2023-04-28T14:45:24;96506.44;;;11.66;66.09
48800;BME280;34611;47.964;7.982;2023-04-28T14:52:25;96509.88;;;11.67;65.98
48800;BME280;34611;47.964;7.982;2023-04-28T14:59:28;96501.25;;;11.66;66.14
48800;BME280;34611;47.964;7.982;2023-04-28T15:06:29;96498.50;;;11.68;66.01
48800;BME280;34611;47.964;7.982;2023-04-28T15:13:31;96484.66;;;11.67;66.15
48800;BME280;34611;47.964;7.982;2023-04-28T15:20:31;96481.25;;;11.67;66.07
48800;BME280;34611;47.964;7.982;2023-04-28T15:27:32;96478.47;;;11.68;66.21
48800;BME280;34611;47.964;7.982;2023-04-28T15:34:32;96480.69;;;11.73;65.88
48800;BME280;34611;47.964;7.982;2023-04-28T15:41:33;96480.13;;;11.69;66.49
48800;BME280;34611;47.964;7.982;2023-04-28T15:48:33;96469.72;;;11.69;66.37
48800;BME280;34611;47.964;7.982;2023-04-28T15:55:34;96458.31;;;11.70;66.19
48800;BME280;34611;47.964;7.982;2023-04-28T16:02:34;96452.44;;;11.68;66.14
48800;BME280;34611;47.964;7.982;2023-04-28T16:09:34;96450.50;;;11.70;66.06
48800;BME280;34611;47.964;7.982;2023-04-28T16:16:35;96449.69;;;11.70;66.16
48800;BME280;34611;47.964;7.982;2023-04-28T16:23:35;96447.25;;;11.68;65.96
48800;BME280;34611;47.964;7.982;2023-04-28T16:30:36;96459.31;;;11.69;66.28
48800;BME280;34611;47.964;7.982;2023-04-28T16:37:36;96455.72;;;11.70;66.11
48800;BME280;34611;47.964;7.982;2023-04-28T16:44:38;96459.97;;;11.71;65.87
48800;BME280;34611;47.964;7.982;2023-04-28T16:51:38;96464.50;;;11.69;66.01
48800;BME280;34611;47.964;7.982;2023-04-28T16:58:38;96454.09;;;11.69;65.91
48800;BME280;34611;47.964;7.982;2023-04-28T17:05:39;96450.69;;;11.69;66.09
48800;BME280;34611;47.964;7.982;2023-04-28T17:12:39;96460.13;;;11.70;65.91
48800;BME280;34611;47.964;7.982;2023-04-28T17:19:40;96454.09;;;11.69;66.08
48800;BME280;34611;47.964;7.982;2023-04-28T17:26:41;96454.09;;;11.69;66.14
48800;BME280;34611;47.964;7.982;2023-04-28T17:33:41;96445.47;;;11.69;66.15
48800;BME280;34611;47.964;7.982;2023-04-28T17:40:41;96445.31;;;11.70;66.13
48800;BME280;34611;47.964;7.982;2023-04-28T17:47:47;96452.06;;;11.91;65.71
48800;BME280;34611;47.964;7.982;2023-04-28T17:54:48;96456.94;;;11.76;66.48
48800;BME280;34611;47.964;7.982;2023-04-28T18:01:48;96461.47;;;11.74;66.67
48800;BME280;34611;47.964;7.982;2023-04-28T18:08:48;96462.28;;;11.74;66.61
48800;BME280;34611;47.964;7.982;2023-04-28T18:15:49;96471.06;;;11.73;66.58
48800;BME280;34611;47.964;7.982;2023-04-28T18:22:49;96467.50;;;11.74;66.33
48800;BME280;34611;47.964;7.982;2023-04-28T18:29:50;96480.69;;;11.73;66.30
48800;BME280;34611;47.964;7.982;2023-04-28T18:36:50;96470.25;;;11.73;66.47
48800;BME280;34611;47.964;7.982;2023-04-28T18:43:50;96475.47;;;11.73;66.52
48800;BME280;34611;47.964;7.982;2023-04-28T18:50:50;96481.63;;;11.72;66.32
48800;BME280;34611;47.964;7.982;2023-04-28T18:57:52;96492.84;;;11.72;66.28
48800;BME280;34611;47.964;7.982;2023-04-28T19:04:54;96495.44;;;11.72;66.38
48800;BME280;34611;47.964;7.982;2023-04-28T19:11:55;96508.47;;;11.72;66.35
48800;BME280;34611;47.964;7.982;2023-04-28T19:18:56;96509.31;;;11.73;66.35
48800;BME280;34611;47.964;7.982;2023-04-28T19:25:57;96530.16;;;11.73;66.41
48800;BME280;34611;47.964;7.982;2023-04-28T19:32:57;96526.69;;;11.72;66.28
48800;BME280;34611;47.964;7.982;2023-04-28T19:39:58;96542.31;;;11.72;66.26
48800;BME280;34611;47.964;7.982;2023-04-28T19:47:01;96555.34;;;11.72;66.45
48800;BME280;34611;47.964;7.982;2023-04-28T19:54:03;96550.31;;;11.71;66.29
48800;BME280;34611;47.964;7.982;2023-04-28T20:01:06;96554.53;;;11.72;66.51
48800;BME280;34611;47.964;7.982;2023-04-28T20:08:06;96563.84;;;11.74;66.39
48800;BME280;34611;47.964;7.982;2023-04-28T20:15:07;96577.16;;;11.71;66.39
48800;BME280;34611;47.964;7.982;2023-04-28T20:22:07;96574.56;;;11.71;66.38
48800;BME280;34611;47.964;7.982;2023-04-28T20:29:08;96577.84;;;11.73;66.54
48800;BME280;34611;47.964;7.982;2023-04-28T20:36:08;96575.22;;;11.73;66.29
48800;BME280;34611;47.964;7.982;2023-04-28T20:43:08;96580.44;;;11.73;66.30
48800;BME280;34611;47.964;7.982;2023-04-28T20:50:08;96577.84;;;11.73;66.42
48800;BME280;34611;47.964;7.982;2023-04-28T20:57:10;96567.41;;;11.73;66.31
48800;BME280;34611;47.964;7.982;2023-04-28T21:04:11;96585.66;;;11.73;66.17
48800;BME280;34611;47.964;7.982;2023-04-28T21:11:11;96584.84;;;11.73;66.36
48800;BME280;34611;47.964;7.982;2023-04-28T21:18:12;96588.38;;;11.72;66.39
48800;BME280;34611;47.964;7.982;2023-04-28T21:25:12;96594.41;;;11.72;66.47
48800;BME280;34611;47.964;7.982;2023-04-28T21:32:12;96589.19;;;11.72;66.52
48800;BME280;34611;47.964;7.982;2023-04-28T21:39:13;96585.66;;;11.73;66.50
48800;BME280;34611;47.964;7.982;2023-04-28T21:46:13;96590.03;;;11.73;66.52
48800;BME280;34611;47.964;7.982;2023-04-28T21:53:14;96589.19;;;11.72;66.24
48800;BME280;34611;47.964;7.982;2023-04-28T22:00:14;96577.84;;;11.73;66.43
48800;BME280;34611;47.964;7.982;2023-04-28T22:07:15;96575.22;;;11.73;66.38
48800;BME280;34611;47.964;7.982;2023-04-28T22:14:16;96567.56;;;11.72;66.34
48800;BME280;34611;47.964;7.982;2023-04-28T22:21:16;96564.00;;;11.73;66.31
48800;BME280;34611;47.964;7.982;2023-04-28T22:28:16;96575.22;;;11.73;66.41
48800;BME280;34611;47.964;7.982;2023-04-28T22:35:19;96579.63;;;11.73;66.40
48800;BME280;34611;47.964;7.982;2023-04-28T22:42:19;96595.25;;;11.73;66.51
48800;BME280;34611;47.964;7.982;2023-04-28T22:49:19;96592.66;;;11.73;66.52
48800;BME280;34611;47.964;7.982;2023-04-28T22:56:23;96595.25;;;11.73;66.23
48800;BME280;34611;47.964;7.982;2023-04-28T23:03:24;96601.28;;;11.73;66.53
48800;BME280;34611;47.964;7.982;2023-04-28T23:10:24;96601.28;;;11.73;66.32
48800;BME280;34611;47.964;7.982;2023-04-28T23:17:25;96603.88;;;11.73;66.30
48800;BME280;34611;47.964;7.982;2023-04-28T23:24:25;96594.41;;;11.72;66.52
48800;BME280;34611;47.964;7.982;2023-04-28T23:31:26;96603.88;;;11.73;66.34
48800;BME280;34611;47.964;7.982;2023-04-28T23:38:26;96602.91;;;11.74;66.30
48800;BME280;34611;47.964;7.982;2023-04-28T23:45:26;96602.91;;;11.74;66.28
48800;BME280;34611;47.964;7.982;2023-04-28T23:52:27;96603.88;;;11.73;66.58
48800;BME280;34611;47.964;7.982;2023-04-28T23:59:27;96590.84;;;11.73;66.38
